Navios Pollux — 3FPO2 — position and weather

sailwx.info

Track history (hours):
 
Tides and Currents Weather Stations Pressure Air Temp Water Temp Dewpoint Dewpoint Depression Visibility Wind Speed Wind Dir Waves Ship Positions

Navios Pollux

Last reported at 2017-Jun-27 22:01 UTC. Time now 2017-Jun-27 22:27 UTC.
Position N 60°00' E 026°24'.

Length 292 m; draft 14.6 m.

Type: Cargo ship. MMSI: 370290000.

Date/timePositionNaut miles runAvg speedWind from/ knotsBaromVisibWave heightAir tempDewpointWater temp
2017-Jun-27 22:01N 60°00' E 026°24'4 8.0
2017-Jun-27 21:30N 60°01' E 026°32'4 7.6
2017-Jun-27 21:01N 60°01' E 026°40'4 7.6
2017-Jun-27 20:30N 60°01' E 026°47'4 7.5
2017-Jun-27 20:00N 59°60' E 026°55'4 7.7
2017-Jun-27 19:30N 59°59' E 027°02'4 7.4
2017-Jun-27 19:00N 60°01' E 027°09'4 7.9
2017-Jun-27 18:31N 60°03' E 027°16'4 7.8
2017-Jun-27 18:00N 60°05' E 027°22'4 7.8
2017-Jun-27 17:31N 60°07' E 027°29'4 7.8
2017-Jun-27 17:01N 60°09' E 027°36'4 7.7
2017-Jun-27 16:31N 60°11' E 027°43'3 6.5
2017-Jun-27 16:00N 60°12' E 027°49'3 6.9
2017-Jun-27 15:31N 60°11' E 027°56'4 7.1
2017-Jun-27 15:00N 60°10' E 028°03'7 7.2
2017-Jun-27 14:01N 60°08' E 028°17'4 7.5
2017-Jun-27 13:31N 60°06' E 028°22'4 7.6
2017-Jun-27 13:00N 60°04' E 028°29'4 7.3
2017-Jun-27 12:30N 60°01' E 028°35'4 7.7
2017-Jun-27 12:01N 59°58' E 028°35'3 6.5
2017-Jun-27 11:31N 59°55' E 028°33'510.0
2017-Jun-27 11:01N 59°51' E 028°27'510.1
2017-Jun-27 10:30N 59°46' E 028°24'4 7.3
2017-Jun-27 10:00N 59°42' E 028°25'1 1.4
2017-Jun-27 09:30N 59°41' E 028°25'0 0.1
2017-Jun-27 08:58N 59°41' E 028°25'0 0.0
2017-Jun-27 08:28N 59°41' E 028°25'0 0.0
2017-Jun-27 07:58N 59°41' E 028°25'0 0.0
2017-Jun-27 07:28N 59°41' E 028°25'0 0.0
2017-Jun-27 06:58N 59°41' E 028°25'0 0.0
2017-Jun-27 06:22N 59°41' E 028°25'0 0.0
2017-Jun-27 05:46N 59°41' E 028°25'0 0.0
2017-Jun-27 05:19N 59°41' E 028°25'0 0.0
2017-Jun-27 04:52N 59°41' E 028°25'0 0.0
2017-Jun-27 04:28N 59°41' E 028°25'0 0.0
2017-Jun-27 03:55N 59°41' E 028°25'0 0.0
2017-Jun-27 03:25N 59°41' E 028°25'0 0.0
2017-Jun-27 02:58N 59°41' E 028°25'0 0.0
2017-Jun-27 02:25N 59°41' E 028°25'0 0.0
2017-Jun-27 01:58N 59°41' E 028°25'0 0.0
2017-Jun-27 01:25N 59°41' E 028°25'0 0.0
2017-Jun-27 00:55N 59°41' E 028°25'0 0.0
2017-Jun-27 00:25N 59°41' E 028°25'0 0.0
2017-Jun-26 23:58N 59°41' E 028°25'0 0.0
2017-Jun-26 23:22N 59°41' E 028°25'0 0.0
2017-Jun-26 22:58N 59°41' E 028°25'0 0.0
2017-Jun-26 22:28N 59°41' E 028°25'0 0.0
2017-Jun-26 21:58N 59°41' E 028°25'0 0.0
2017-Jun-26 21:28N 59°41' E 028°25'0 0.0
2017-Jun-26 20:58N 59°41' E 028°25'0 0.0
2017-Jun-26 20:28N 59°41' E 028°25'0 0.0
2017-Jun-26 19:55N 59°41' E 028°25'0 0.0
2017-Jun-26 19:28N 59°41' E 028°25'0 0.0
2017-Jun-26 18:58N 59°41' E 028°25'0 0.0
2017-Jun-26 18:28N 59°41' E 028°25'0 0.0
2017-Jun-26 17:58N 59°41' E 028°25'0 0.0
2017-Jun-26 17:28N 59°41' E 028°25'0 0.0
2017-Jun-26 16:55N 59°41' E 028°25'0 0.0
2017-Jun-26 16:22N 59°41' E 028°25'0 0.0
2017-Jun-26 15:49N 59°41' E 028°25'0 0.0
2017-Jun-26 15:16N 59°41' E 028°25'0 0.0
2017-Jun-26 14:58N 59°41' E 028°25'0 0.0
2017-Jun-26 14:28N 59°41' E 028°25'0 0.0
2017-Jun-26 13:28N 59°41' E 028°25'0 0.0
2017-Jun-26 12:52N 59°41' E 028°25'0 0.0
2017-Jun-26 12:28N 59°41' E 028°25'0 0.0
2017-Jun-26 11:58N 59°41' E 028°25'0 0.0
2017-Jun-26 11:28N 59°41' E 028°25'0 0.0
2017-Jun-26 10:58N 59°41' E 028°25'0 0.0
2017-Jun-26 10:28N 59°41' E 028°25'0 0.0
2017-Jun-26 09:58N 59°41' E 028°25'0 0.0
2017-Jun-26 09:28N 59°41' E 028°25'0 0.0
2017-Jun-26 08:58N 59°41' E 028°25'0 0.0
2017-Jun-26 08:25N 59°41' E 028°25'0 0.0
2017-Jun-26 07:58N 59°41' E 028°25'0 0.0
2017-Jun-26 07:28N 59°41' E 028°25'0 0.0
2017-Jun-26 06:58N 59°41' E 028°25'0 0.0
2017-Jun-26 06:28N 59°41' E 028°25'0 0.0
2017-Jun-26 05:58N 59°41' E 028°25'0 0.0
2017-Jun-26 05:28N 59°41' E 028°25'0 0.0
2017-Jun-26 04:58N 59°41' E 028°25'0 0.0
2017-Jun-26 04:28N 59°41' E 028°25'0 0.0
2017-Jun-26 03:58N 59°41' E 028°25'0 0.0
2017-Jun-26 03:28N 59°41' E 028°25'0 0.0
2017-Jun-26 02:55N 59°41' E 028°25'0 0.0
2017-Jun-26 02:28N 59°41' E 028°25'0 0.0
2017-Jun-26 01:58N 59°41' E 028°25'0 0.0
2017-Jun-26 01:28N 59°41' E 028°25'0 0.0
2017-Jun-26 00:52N 59°41' E 028°25'0 0.0
2017-Jun-26 00:28N 59°41' E 028°25'0 0.0
2017-Jun-25 23:58N 59°41' E 028°25'0 0.0
2017-Jun-25 23:28N 59°41' E 028°25'0 0.0
2017-Jun-25 22:58N 59°41' E 028°25'0 0.0
2017-Jun-25 22:28N 59°41' E 028°25'0 0.0
2017-Jun-25 21:55N 59°41' E 028°25'0 0.0
2017-Jun-25 21:25N 59°41' E 028°25'0 0.0
2017-Jun-25 20:58N 59°41' E 028°25'0 0.0
2017-Jun-25 20:28N 59°41' E 028°25'0 0.0
2017-Jun-25 19:58N 59°41' E 028°25'0 0.0
2017-Jun-25 19:28N 59°41' E 028°25'0 0.0
2017-Jun-25 18:58N 59°41' E 028°25'0 0.0
2017-Jun-25 18:28N 59°41' E 028°25'0 0.0
2017-Jun-25 17:58N 59°41' E 028°25'0 0.0
2017-Jun-25 17:28N 59°41' E 028°25'0 0.0
2017-Jun-25 16:58N 59°41' E 028°25'0 0.0
2017-Jun-25 16:28N 59°41' E 028°25'0 0.0
2017-Jun-25 15:58N 59°41' E 028°25'0 0.0
2017-Jun-25 15:28N 59°41' E 028°25'0 0.0
2017-Jun-25 14:58N 59°41' E 028°25'0 0.0
2017-Jun-25 13:58N 59°41' E 028°25'0 0.0
2017-Jun-25 13:28N 59°41' E 028°25'0 0.0
2017-Jun-25 12:58N 59°41' E 028°25'0 0.0
2017-Jun-25 12:28N 59°41' E 028°25'0 0.0
2017-Jun-25 11:58N 59°41' E 028°25'0 0.0
2017-Jun-25 11:25N 59°41' E 028°25'0 0.0
2017-Jun-25 10:52N 59°41' E 028°25'0 0.0
2017-Jun-25 10:28N 59°41' E 028°25'0 0.0
2017-Jun-25 09:58N 59°41' E 028°25'0 0.0
2017-Jun-25 09:28N 59°41' E 028°25'0 0.0
2017-Jun-25 08:58N 59°41' E 028°25'0 0.0
2017-Jun-25 08:28N 59°41' E 028°25'0 0.0
2017-Jun-25 07:58N 59°41' E 028°25'0 0.0
2017-Jun-25 07:28N 59°41' E 028°25'0 0.0
2017-Jun-25 06:58N 59°41' E 028°25'0 0.0
2017-Jun-25 06:28N 59°41' E 028°25'0 0.0
2017-Jun-25 05:58N 59°41' E 028°25'0 0.0
2017-Jun-25 05:28N 59°41' E 028°25'0 0.0
2017-Jun-25 04:58N 59°41' E 028°25'0 0.0
2017-Jun-25 04:28N 59°41' E 028°25'0 0.0
2017-Jun-25 03:58N 59°41' E 028°25'0 0.0
2017-Jun-25 03:28N 59°41' E 028°25'0 0.0
2017-Jun-25 02:58N 59°41' E 028°25'0 0.0
2017-Jun-25 02:28N 59°41' E 028°25'0 0.0
2017-Jun-25 01:58N 59°41' E 028°25'0 0.0
2017-Jun-25 01:28N 59°41' E 028°25'0 0.0
2017-Jun-25 00:58N 59°41' E 028°25'0 0.0
2017-Jun-25 00:28N 59°41' E 028°25'0 0.0
2017-Jun-24 23:58N 59°41' E 028°25'0 0.1
2017-Jun-24 23:28N 59°41' E 028°25'0 0.0
2017-Jun-24 22:58N 59°41' E 028°25'0 0.0
2017-Jun-24 22:28N 59°41' E 028°25'0 0.0
2017-Jun-24 21:55N 59°41' E 028°25'0 0.0
2017-Jun-24 21:28N 59°41' E 028°25'0 0.0
2017-Jun-24 20:58N 59°41' E 028°25'0 0.0
2017-Jun-24 20:28N 59°41' E 028°25'0 0.0
2017-Jun-24 19:58N 59°41' E 028°25'0 0.0
2017-Jun-24 19:25N 59°41' E 028°25'0 0.0
2017-Jun-24 18:55N 59°41' E 028°25'0 0.0
2017-Jun-24 18:25N 59°41' E 028°25'0 0.0
2017-Jun-24 17:55N 59°41' E 028°25'0 0.0
2017-Jun-24 17:28N 59°41' E 028°25'0 0.0
2017-Jun-24 16:58N 59°41' E 028°25'0 0.0
2017-Jun-24 16:28N 59°41' E 028°25'0 0.0
2017-Jun-24 15:58N 59°41' E 028°25'0 0.0
2017-Jun-24 15:28N 59°41' E 028°25'0 0.0
2017-Jun-24 14:58N 59°41' E 028°25'0 0.0
2017-Jun-24 13:58N 59°41' E 028°25'0 0.0
2017-Jun-24 13:28N 59°41' E 028°25'0 0.0
2017-Jun-24 12:58N 59°41' E 028°25'0 0.0
2017-Jun-24 12:25N 59°41' E 028°25'0 0.0
2017-Jun-24 11:58N 59°41' E 028°25'0 0.0
2017-Jun-24 11:25N 59°41' E 028°25'0 0.0
2017-Jun-24 10:58N 59°41' E 028°25'0 0.0
2017-Jun-24 10:25N 59°41' E 028°25'0 0.0
2017-Jun-24 09:58N 59°41' E 028°25'0 0.0
2017-Jun-24 09:28N 59°41' E 028°25'0 0.0
2017-Jun-24 08:58N 59°41' E 028°25'0 0.0
2017-Jun-24 08:25N 59°41' E 028°25'0 0.0
2017-Jun-24 07:58N 59°41' E 028°25'0 0.0
2017-Jun-24 07:28N 59°41' E 028°25'0 0.0
2017-Jun-24 06:58N 59°41' E 028°25'0 0.0
2017-Jun-24 06:28N 59°41' E 028°25'0 0.0
2017-Jun-24 05:58N 59°41' E 028°25'0 0.0
2017-Jun-24 05:28N 59°41' E 028°25'0 0.0
2017-Jun-24 05:00N 59°41' E 028°25'0 0.9
2017-Jun-24 04:31N 59°41' E 028°24'3 6.0
2017-Jun-24 04:01N 59°44' E 028°24'5 9.7
2017-Jun-24 03:30N 59°49' E 028°25'510.2
2017-Jun-24 03:00N 59°54' E 028°30'4 7.7
2017-Jun-24 02:30N 59°56' E 028°37'0 0.1
2017-Jun-24 02:01N 59°56' E 028°37'0 0.0
2017-Jun-24 01:30N 59°56' E 028°37'0 0.0
2017-Jun-24 01:01N 59°56' E 028°37'0 0.0
2017-Jun-24 00:31N 59°56' E 028°37'0 0.0
2017-Jun-24 00:00N 59°56' E 028°37'0 0.0
2017-Jun-23 23:31N 59°56' E 028°37'0 0.0
2017-Jun-23 23:01N 59°56' E 028°37'0 0.0
2017-Jun-23 22:31N 59°56' E 028°37'0 0.0
2017-Jun-23 22:00N 59°56' E 028°37'0 0.0
2017-Jun-23 21:31N 59°56' E 028°37'0 0.0
2017-Jun-23 21:00N 59°56' E 028°37'0 0.0
2017-Jun-23 20:31N 59°56' E 028°37'0 0.0
2017-Jun-23 20:01N 59°56' E 028°37'0 0.0
2017-Jun-23 19:31N 59°56' E 028°37'0 0.0
2017-Jun-23 19:01N 59°56' E 028°37'0 0.0
2017-Jun-23 18:31N 59°56' E 028°37'0 0.0
2017-Jun-23 18:01N 59°56' E 028°37'0 0.0
2017-Jun-23 17:31N 59°56' E 028°37'0 0.0
2017-Jun-23 17:00N 59°56' E 028°37'0 0.0
2017-Jun-23 16:31N 59°56' E 028°37'0 0.1
2017-Jun-23 16:00N 59°56' E 028°37'0 0.0
2017-Jun-23 15:30N 59°56' E 028°37'0 0.0
2017-Jun-23 15:00N 59°56' E 028°37'0 0.0
2017-Jun-23 14:31N 59°56' E 028°37'0 0.0
2017-Jun-23 13:30N 59°56' E 028°37'0 0.0
2017-Jun-23 13:01N 59°56' E 028°37'0 0.0
2017-Jun-23 12:30N 59°56' E 028°37'0 0.0
2017-Jun-23 12:01N 59°56' E 028°37'0 0.1
2017-Jun-23 11:31N 59°56' E 028°37'0 0.0
2017-Jun-23 11:00N 59°56' E 028°37'0 0.1
2017-Jun-23 10:31N 59°56' E 028°37'0 0.0
2017-Jun-23 10:01N 59°56' E 028°37'0 0.0
2017-Jun-23 09:31N 59°56' E 028°37'0 0.0
2017-Jun-23 09:00N 59°56' E 028°37'0 0.0
2017-Jun-23 08:31N 59°56' E 028°37'0 0.0
2017-Jun-23 08:01N 59°56' E 028°37'0 0.0
2017-Jun-23 07:31N 59°56' E 028°37'0 0.0
2017-Jun-23 07:01N 59°56' E 028°37'0 0.1
2017-Jun-23 06:31N 59°56' E 028°36'0 0.0
2017-Jun-23 06:00N 59°56' E 028°36'0 0.1
2017-Jun-23 05:30N 59°56' E 028°36'0 0.0
2017-Jun-23 05:01N 59°56' E 028°36'0 0.2
2017-Jun-23 04:31N 59°56' E 028°37'0 0.1
2017-Jun-23 04:01N 59°56' E 028°37'0 0.0
2017-Jun-23 03:31N 59°56' E 028°37'0 0.0
2017-Jun-23 03:01N 59°56' E 028°37'0 0.0
2017-Jun-23 02:31N 59°56' E 028°37'0 0.1
2017-Jun-23 02:00N 59°56' E 028°37'0 0.0
2017-Jun-23 01:31N 59°56' E 028°37'0 0.0
2017-Jun-23 01:00N 59°56' E 028°37'0 0.0
2017-Jun-23 00:30N 59°56' E 028°37'0 0.0
2017-Jun-23 00:00N 59°56' E 028°37'0 0.0
2017-Jun-22 23:31N 59°56' E 028°37'0 0.0
2017-Jun-22 23:01N 59°56' E 028°37'0 0.0
2017-Jun-22 22:31N 59°56' E 028°37'0 0.1
2017-Jun-22 22:01N 59°56' E 028°37'0 0.0
2017-Jun-22 21:31N 59°56' E 028°37'0 0.0
2017-Jun-22 21:00N 59°56' E 028°37'0 0.0
2017-Jun-22 20:31N 59°56' E 028°37'0 0.0
2017-Jun-22 20:00N 59°56' E 028°37'0 0.0
2017-Jun-22 19:31N 59°56' E 028°37'0 0.0
2017-Jun-22 19:01N 59°56' E 028°37'0 0.0
2017-Jun-22 18:30N 59°56' E 028°37'0 0.0
2017-Jun-22 18:00N 59°56' E 028°37'0 0.0
2017-Jun-22 17:31N 59°56' E 028°37'0 0.0
2017-Jun-22 17:01N 59°56' E 028°37'0 0.0
2017-Jun-22 16:30N 59°56' E 028°37'0 0.0
2017-Jun-22 16:01N 59°56' E 028°37'0 0.1
2017-Jun-22 15:31N 59°56' E 028°37'0 0.1
2017-Jun-22 15:01N 59°56' E 028°37'0 0.1
2017-Jun-22 14:30N 59°56' E 028°37'0 0.0
2017-Jun-22 13:31N 59°56' E 028°37'0 0.0
2017-Jun-22 13:00N 59°56' E 028°37'0 0.0
2017-Jun-22 12:30N 59°56' E 028°37'0 0.0
2017-Jun-22 12:00N 59°56' E 028°37'0 0.0
2017-Jun-22 11:31N 59°56' E 028°37'0 0.0
2017-Jun-22 11:00N 59°56' E 028°37'0 0.1
2017-Jun-22 10:31N 59°56' E 028°37'0 0.1
2017-Jun-22 10:00N 59°56' E 028°37'0 0.0
2017-Jun-22 09:30N 59°56' E 028°37'0 0.0
2017-Jun-22 09:00N 59°56' E 028°37'0 0.0
2017-Jun-22 08:30N 59°56' E 028°37'0 0.0
2017-Jun-22 08:01N 59°56' E 028°37'0 0.0
2017-Jun-22 07:30N 59°56' E 028°37'0 0.0
2017-Jun-22 07:00N 59°56' E 028°37'0 0.0
2017-Jun-22 06:30N 59°56' E 028°37'0 0.0
2017-Jun-22 06:01N 59°56' E 028°37'0 0.0
2017-Jun-22 05:31N 59°56' E 028°37'0 0.0
2017-Jun-22 05:00N 59°56' E 028°37'0 0.0
2017-Jun-22 04:31N 59°56' E 028°37'0 0.0
2017-Jun-22 04:00N 59°56' E 028°37'0 0.0
2017-Jun-22 03:30N 59°56' E 028°37'0 0.0
2017-Jun-22 03:00N 59°56' E 028°37'0 0.0
2017-Jun-22 02:31N 59°56' E 028°37'0 0.0
2017-Jun-22 02:01N 59°56' E 028°37'0 0.0
2017-Jun-22 01:30N 59°56' E 028°37'0 0.0
2017-Jun-22 01:01N 59°56' E 028°37'0 0.0
2017-Jun-22 00:31N 59°56' E 028°37'0 0.0
2017-Jun-22 00:01N 59°56' E 028°37'0 0.0
2017-Jun-21 23:31N 59°56' E 028°37'0 0.0
2017-Jun-21 23:01N 59°56' E 028°37'0 0.0
2017-Jun-21 22:31N 59°56' E 028°37'0 0.0
2017-Jun-21 22:00N 59°56' E 028°37'0 0.0
2017-Jun-21 21:31N 59°56' E 028°37'0 0.0
2017-Jun-21 21:00N 59°56' E 028°37'0 0.0
2017-Jun-21 20:31N 59°56' E 028°37'0 0.0
2017-Jun-21 20:01N 59°56' E 028°37'0 0.0
2017-Jun-21 19:31N 59°56' E 028°37'0 0.0
2017-Jun-21 19:01N 59°56' E 028°37'0 0.0
2017-Jun-21 18:30N 59°56' E 028°37'0 0.1
2017-Jun-21 18:00N 59°56' E 028°37'0 0.1
2017-Jun-21 17:31N 59°56' E 028°37'0 0.0
2017-Jun-21 17:00N 59°56' E 028°37'0 0.0
2017-Jun-21 16:31N 59°56' E 028°37'0 0.0
2017-Jun-21 16:00N 59°56' E 028°37'0 0.0
2017-Jun-21 15:31N 59°56' E 028°37'0 0.0
2017-Jun-21 15:01N 59°56' E 028°37'0 0.1
2017-Jun-21 14:30N 59°56' E 028°37'0 0.1
2017-Jun-21 13:31N 59°56' E 028°37'0 0.0
2017-Jun-21 13:01N 59°56' E 028°37'0 0.0
2017-Jun-21 12:31N 59°56' E 028°37'0 0.0
2017-Jun-21 12:00N 59°56' E 028°37'0 0.0
2017-Jun-21 11:31N 59°56' E 028°37'0 0.0
2017-Jun-21 11:01N 59°56' E 028°37'0 0.1
2017-Jun-21 10:31N 59°56' E 028°37'0 0.0
2017-Jun-21 10:00N 59°56' E 028°37'0 0.1
2017-Jun-21 09:31N 59°56' E 028°37'0 0.0
2017-Jun-21 09:01N 59°56' E 028°37'0 0.0
2017-Jun-21 08:30N 59°56' E 028°37'0 0.0
2017-Jun-21 08:00N 59°56' E 028°37'0 0.0
2017-Jun-21 07:30N 59°56' E 028°37'0 0.0
2017-Jun-21 07:01N 59°56' E 028°37'0 0.0
2017-Jun-21 06:31N 59°56' E 028°37'0 0.0
2017-Jun-21 06:01N 59°56' E 028°37'0 0.0
2017-Jun-21 05:30N 59°56' E 028°37'0 0.0
2017-Jun-21 05:00N 59°56' E 028°37'0 0.0
2017-Jun-21 04:30N 59°56' E 028°37'0 0.1
2017-Jun-21 04:00N 59°56' E 028°37'0 0.0
2017-Jun-21 03:30N 59°56' E 028°37'0 0.0
2017-Jun-21 03:00N 59°56' E 028°37'0 0.0
2017-Jun-21 02:30N 59°56' E 028°37'0 0.0
2017-Jun-21 02:01N 59°56' E 028°37'0 0.0
2017-Jun-21 01:31N 59°56' E 028°37'0 0.0
2017-Jun-21 01:01N 59°56' E 028°37'0 0.0
2017-Jun-21 00:31N 59°56' E 028°37'0 0.0
2017-Jun-21 00:01N 59°56' E 028°37'0 0.0
2017-Jun-20 23:31N 59°56' E 028°37'0 0.0
2017-Jun-20 23:00N 59°56' E 028°37'0 0.0
2017-Jun-20 22:31N 59°56' E 028°37'0 0.1
2017-Jun-20 22:01N 59°56' E 028°37'0 0.0
2017-Jun-20 21:31N 59°56' E 028°37'0 0.0
2017-Jun-20 21:01N 59°56' E 028°37'0 0.0
2017-Jun-20 20:31N 59°56' E 028°37'0 0.0
2017-Jun-20 20:01N 59°56' E 028°37'0 0.0
2017-Jun-20 19:31N 59°56' E 028°37'0 0.0
2017-Jun-20 19:00N 59°56' E 028°37'0 0.1
2017-Jun-20 18:31N 59°56' E 028°37'0 0.1
2017-Jun-20 18:01N 59°56' E 028°37'0 0.1
2017-Jun-20 17:31N 59°56' E 028°37'0 0.1
2017-Jun-20 17:01N 59°56' E 028°37'0 0.0
2017-Jun-20 16:31N 59°56' E 028°37'0 0.0
2017-Jun-20 16:01N 59°56' E 028°37'0 0.0
2017-Jun-20 15:30N 59°56' E 028°37'0 0.0
2017-Jun-20 15:01N 59°56' E 028°37'0 0.0
2017-Jun-20 14:00N 59°56' E 028°37'0 0.0
2017-Jun-20 13:30N 59°56' E 028°37'0 0.2
2017-Jun-20 13:00N 59°56' E 028°37'0 0.2
2017-Jun-20 12:30N 59°56' E 028°36'0 0.1
2017-Jun-20 12:01N 59°56' E 028°36'0 0.0
2017-Jun-20 11:31N 59°56' E 028°36'0 0.0
2017-Jun-20 11:01N 59°56' E 028°36'0 0.0
2017-Jun-20 10:31N 59°56' E 028°36'0 0.0
2017-Jun-20 10:00N 59°56' E 028°36'0 0.0
2017-Jun-20 09:31N 59°56' E 028°36'0 0.0
2017-Jun-20 09:00N 59°56' E 028°36'0 0.1
2017-Jun-20 08:31N 59°56' E 028°37'0 0.1
2017-Jun-20 08:01N 59°56' E 028°37'0 0.1
2017-Jun-20 07:31N 59°56' E 028°37'0 0.0
2017-Jun-20 07:00N 59°56' E 028°37'0 0.1
2017-Jun-20 06:31N 59°56' E 028°37'0 0.0
2017-Jun-20 06:01N 59°56' E 028°37'0 0.1
2017-Jun-20 05:30N 59°56' E 028°37'0 0.0
2017-Jun-20 05:01N 59°56' E 028°37'0 0.0
2017-Jun-20 04:31N 59°56' E 028°37'0 0.1
2017-Jun-20 04:01N 59°56' E 028°37'0 0.0
2017-Jun-20 03:31N 59°56' E 028°37'0 0.1
2017-Jun-20 03:00N 59°56' E 028°37'0 0.0
2017-Jun-20 02:31N 59°56' E 028°37'0 0.0
2017-Jun-20 02:00N 59°56' E 028°37'0 0.0
2017-Jun-20 01:30N 59°56' E 028°37'0 0.0
2017-Jun-20 01:01N 59°56' E 028°37'0 0.0
2017-Jun-20 00:31N 59°56' E 028°37'0 0.0
2017-Jun-20 00:00N 59°56' E 028°37'0 0.0
2017-Jun-19 23:30N 59°56' E 028°37'0 0.0
2017-Jun-19 23:01N 59°56' E 028°37'0 0.0
2017-Jun-19 22:30N 59°56' E 028°37'0 0.0
2017-Jun-19 22:01N 59°56' E 028°37'0 0.0
2017-Jun-19 21:30N 59°56' E 028°37'0 0.0
2017-Jun-19 21:01N 59°56' E 028°37'0 0.0
2017-Jun-19 20:31N 59°56' E 028°37'0 0.0
2017-Jun-19 20:00N 59°56' E 028°37'0 0.0
2017-Jun-19 19:30N 59°56' E 028°37'0 0.0
2017-Jun-19 19:00N 59°56' E 028°37'0 0.0
2017-Jun-19 18:31N 59°56' E 028°37'0 0.0
2017-Jun-19 18:00N 59°56' E 028°37'0 0.0
2017-Jun-19 17:31N 59°56' E 028°37'0 0.0
2017-Jun-19 17:01N 59°56' E 028°37'0 0.0
2017-Jun-19 16:30N 59°56' E 028°37'0 0.1
2017-Jun-19 16:01N 59°56' E 028°37'0 0.0
2017-Jun-19 15:31N 59°56' E 028°37'0 0.0
2017-Jun-19 15:00N 59°56' E 028°37'0 0.0
2017-Jun-19 14:00N 59°56' E 028°37'0 0.0
2017-Jun-19 13:31N 59°56' E 028°37'0 0.0
2017-Jun-19 13:01N 59°56' E 028°37'0 0.0
2017-Jun-19 12:30N 59°56' E 028°37'0 0.0
2017-Jun-19 12:00N 59°56' E 028°37'0 0.0
2017-Jun-19 11:30N 59°56' E 028°37'0 0.0
2017-Jun-19 11:00N 59°56' E 028°37'0 0.0
2017-Jun-19 10:30N 59°56' E 028°37'0 0.0
2017-Jun-19 10:00N 59°56' E 028°37'0 0.0
2017-Jun-19 09:31N 59°56' E 028°37'0 0.0
2017-Jun-19 09:01N 59°56' E 028°37'0 0.0
2017-Jun-19 08:31N 59°56' E 028°37'0 0.0
2017-Jun-19 08:00N 59°56' E 028°37'0 0.0
2017-Jun-19 07:30N 59°56' E 028°37'0 0.0
2017-Jun-19 07:00N 59°56' E 028°37'0 0.0
2017-Jun-19 06:31N 59°56' E 028°37'0 0.0
2017-Jun-19 06:00N 59°56' E 028°37'0 0.0
2017-Jun-19 05:31N 59°56' E 028°37'0 0.0
2017-Jun-19 05:00N 59°56' E 028°37'0 0.0
2017-Jun-19 04:31N 59°56' E 028°37'0 0.0
2017-Jun-19 04:01N 59°56' E 028°37'0 0.0
2017-Jun-19 03:30N 59°56' E 028°37'0 0.0
2017-Jun-19 03:00N 59°56' E 028°37'0 0.0
2017-Jun-19 02:31N 59°56' E 028°37'0 0.0
2017-Jun-19 02:00N 59°56' E 028°37'0 0.0
2017-Jun-19 01:31N 59°56' E 028°37'0 0.0
2017-Jun-19 01:01N 59°56' E 028°37'0 0.0
2017-Jun-19 00:31N 59°56' E 028°37'0 0.0
2017-Jun-19 00:00N 59°56' E 028°37'0 0.0
2017-Jun-18 23:30N 59°56' E 028°37'0 0.0
2017-Jun-18 23:00N 59°56' E 028°37'0 0.0
2017-Jun-18 22:31N 59°56' E 028°37'0 0.0
2017-Jun-18 22:00N 59°56' E 028°37'0 0.0
2017-Jun-18 21:30N 59°56' E 028°37'0 0.0
2017-Jun-18 21:00N 59°56' E 028°37'0 0.0
2017-Jun-18 20:31N 59°56' E 028°37'0 0.0
2017-Jun-18 20:00N 59°56' E 028°37'0 0.0
2017-Jun-18 19:31N 59°56' E 028°37'0 0.0
2017-Jun-18 19:00N 59°56' E 028°37'0 0.1
2017-Jun-18 18:31N 59°56' E 028°37'0 0.0
2017-Jun-18 18:00N 59°56' E 028°37'0 0.0
2017-Jun-18 17:30N 59°56' E 028°37'0 0.0
2017-Jun-18 17:00N 59°56' E 028°37'0 0.1
2017-Jun-18 16:31N 59°56' E 028°37'0 0.1
2017-Jun-18 16:00N 59°56' E 028°37'0 0.1
2017-Jun-18 15:31N 59°56' E 028°37'0 0.0
2017-Jun-18 15:00N 59°56' E 028°37'0 0.1
2017-Jun-18 14:01N 59°56' E 028°37'0 0.0
2017-Jun-18 13:30N 59°56' E 028°37'0 0.0
2017-Jun-18 13:01N 59°56' E 028°37'0 0.0
2017-Jun-18 12:31N 59°56' E 028°37'0 0.0
2017-Jun-18 12:01N 59°56' E 028°37'0 0.0
2017-Jun-18 11:31N 59°56' E 028°37'0 0.0
2017-Jun-18 11:00N 59°56' E 028°37'0 0.0
2017-Jun-18 10:31N 59°56' E 028°37'0 0.0
2017-Jun-18 10:00N 59°56' E 028°37'0 0.0
2017-Jun-18 09:30N 59°56' E 028°37'0 0.0
2017-Jun-18 09:00N 59°56' E 028°37'0 0.1
2017-Jun-18 08:31N 59°56' E 028°37'0 0.0
2017-Jun-18 08:00N 59°56' E 028°37'0 0.0
2017-Jun-18 07:31N 59°56' E 028°37'0 0.0
2017-Jun-18 07:01N 59°56' E 028°37'0 0.0
2017-Jun-18 06:30N 59°56' E 028°37'0 0.1
2017-Jun-18 06:00N 59°56' E 028°37'0 0.0
2017-Jun-18 05:30N 59°56' E 028°37'0 0.0
2017-Jun-18 05:01N 59°56' E 028°37'0 0.0
2017-Jun-18 04:31N 59°56' E 028°37'0 0.0
2017-Jun-18 04:01N 59°56' E 028°37'0 0.0
2017-Jun-18 03:31N 59°56' E 028°37'0 0.0
2017-Jun-18 03:00N 59°56' E 028°37'0 0.0
2017-Jun-18 02:31N 59°56' E 028°37'0 0.0
2017-Jun-18 02:00N 59°56' E 028°37'0 0.0
2017-Jun-18 01:31N 59°56' E 028°37'0 0.0
2017-Jun-18 01:01N 59°56' E 028°37'0 0.1
2017-Jun-18 00:31N 59°56' E 028°37'0 0.3
2017-Jun-18 00:01N 59°56' E 028°36'0 0.2
2017-Jun-17 23:31N 59°56' E 028°36'1 2.7
2017-Jun-17 23:01N 59°57' E 028°35'2 4.2
2017-Jun-17 22:31N 59°59' E 028°35'  
Track history (hours):
 
Tides and Currents Weather Stations Pressure Air Temp Water Temp Dewpoint Dewpoint Depression Visibility Wind Speed Wind Dir Waves Ship Positions

Navios Pollux

Last reported at 2017-Jun-27 22:01 UTC. Time now 2017-Jun-27 22:27 UTC.
Position N 60°00' E 026°24'.

Length 292 m; draft 14.6 m.

Type: Cargo ship. MMSI: 370290000.

Date/timePositionNaut miles runAvg speedWind from/ knotsBaromVisibWave heightAir tempDewpointWater temp
2017-Jun-27 22:01N 60°00' E 026°24'4 8.0
2017-Jun-27 21:30N 60°01' E 026°32'4 7.6
2017-Jun-27 21:01N 60°01' E 026°40'4 7.6
2017-Jun-27 20:30N 60°01' E 026°47'4 7.5
2017-Jun-27 20:00N 59°60' E 026°55'4 7.7
2017-Jun-27 19:30N 59°59' E 027°02'4 7.4
2017-Jun-27 19:00N 60°01' E 027°09'4 7.9
2017-Jun-27 18:31N 60°03' E 027°16'4 7.8
2017-Jun-27 18:00N 60°05' E 027°22'4 7.8
2017-Jun-27 17:31N 60°07' E 027°29'4 7.8
2017-Jun-27 17:01N 60°09' E 027°36'4 7.7
2017-Jun-27 16:31N 60°11' E 027°43'3 6.5
2017-Jun-27 16:00N 60°12' E 027°49'3 6.9
2017-Jun-27 15:31N 60°11' E 027°56'4 7.1
2017-Jun-27 15:00N 60°10' E 028°03'7 7.2
2017-Jun-27 14:01N 60°08' E 028°17'4 7.5
2017-Jun-27 13:31N 60°06' E 028°22'4 7.6
2017-Jun-27 13:00N 60°04' E 028°29'4 7.3
2017-Jun-27 12:30N 60°01' E 028°35'4 7.7
2017-Jun-27 12:01N 59°58' E 028°35'3 6.5
2017-Jun-27 11:31N 59°55' E 028°33'510.0
2017-Jun-27 11:01N 59°51' E 028°27'510.1
2017-Jun-27 10:30N 59°46' E 028°24'4 7.3
2017-Jun-27 10:00N 59°42' E 028°25'1 1.4
2017-Jun-27 09:30N 59°41' E 028°25'0 0.1
2017-Jun-27 08:58N 59°41' E 028°25'0 0.0
2017-Jun-27 08:28N 59°41' E 028°25'0 0.0
2017-Jun-27 07:58N 59°41' E 028°25'0 0.0
2017-Jun-27 07:28N 59°41' E 028°25'0 0.0
2017-Jun-27 06:58N 59°41' E 028°25'0 0.0
2017-Jun-27 06:22N 59°41' E 028°25'0 0.0
2017-Jun-27 05:46N 59°41' E 028°25'0 0.0
2017-Jun-27 05:19N 59°41' E 028°25'0 0.0
2017-Jun-27 04:52N 59°41' E 028°25'0 0.0
2017-Jun-27 04:28N 59°41' E 028°25'0 0.0
2017-Jun-27 03:55N 59°41' E 028°25'0 0.0
2017-Jun-27 03:25N 59°41' E 028°25'0 0.0
2017-Jun-27 02:58N 59°41' E 028°25'0 0.0
2017-Jun-27 02:25N 59°41' E 028°25'0 0.0
2017-Jun-27 01:58N 59°41' E 028°25'0 0.0
2017-Jun-27 01:25N 59°41' E 028°25'0 0.0
2017-Jun-27 00:55N 59°41' E 028°25'0 0.0
2017-Jun-27 00:25N 59°41' E 028°25'0 0.0
2017-Jun-26 23:58N 59°41' E 028°25'0 0.0
2017-Jun-26 23:22N 59°41' E 028°25'0 0.0
2017-Jun-26 22:58N 59°41' E 028°25'0 0.0
2017-Jun-26 22:28N 59°41' E 028°25'0 0.0
2017-Jun-26 21:58N 59°41' E 028°25'0 0.0
2017-Jun-26 21:28N 59°41' E 028°25'0 0.0
2017-Jun-26 20:58N 59°41' E 028°25'0 0.0
2017-Jun-26 20:28N 59°41' E 028°25'0 0.0
2017-Jun-26 19:55N 59°41' E 028°25'0 0.0
2017-Jun-26 19:28N 59°41' E 028°25'0 0.0
2017-Jun-26 18:58N 59°41' E 028°25'0 0.0
2017-Jun-26 18:28N 59°41' E 028°25'0 0.0
2017-Jun-26 17:58N 59°41' E 028°25'0 0.0
2017-Jun-26 17:28N 59°41' E 028°25'0 0.0
2017-Jun-26 16:55N 59°41' E 028°25'0 0.0
2017-Jun-26 16:22N 59°41' E 028°25'0 0.0
2017-Jun-26 15:49N 59°41' E 028°25'0 0.0
2017-Jun-26 15:16N 59°41' E 028°25'0 0.0
2017-Jun-26 14:58N 59°41' E 028°25'0 0.0
2017-Jun-26 14:28N 59°41' E 028°25'0 0.0
2017-Jun-26 13:28N 59°41' E 028°25'0 0.0
2017-Jun-26 12:52N 59°41' E 028°25'0 0.0
2017-Jun-26 12:28N 59°41' E 028°25'0 0.0
2017-Jun-26 11:58N 59°41' E 028°25'0 0.0
2017-Jun-26 11:28N 59°41' E 028°25'0 0.0
2017-Jun-26 10:58N 59°41' E 028°25'0 0.0
2017-Jun-26 10:28N 59°41' E 028°25'0 0.0
2017-Jun-26 09:58N 59°41' E 028°25'0 0.0
2017-Jun-26 09:28N 59°41' E 028°25'0 0.0
2017-Jun-26 08:58N 59°41' E 028°25'0 0.0
2017-Jun-26 08:25N 59°41' E 028°25'0 0.0
2017-Jun-26 07:58N 59°41' E 028°25'0 0.0
2017-Jun-26 07:28N 59°41' E 028°25'0 0.0
2017-Jun-26 06:58N 59°41' E 028°25'0 0.0
2017-Jun-26 06:28N 59°41' E 028°25'0 0.0
2017-Jun-26 05:58N 59°41' E 028°25'0 0.0
2017-Jun-26 05:28N 59°41' E 028°25'0 0.0
2017-Jun-26 04:58N 59°41' E 028°25'0 0.0
2017-Jun-26 04:28N 59°41' E 028°25'0 0.0
2017-Jun-26 03:58N 59°41' E 028°25'0 0.0
2017-Jun-26 03:28N 59°41' E 028°25'0 0.0
2017-Jun-26 02:55N 59°41' E 028°25'0 0.0
2017-Jun-26 02:28N 59°41' E 028°25'0 0.0
2017-Jun-26 01:58N 59°41' E 028°25'0 0.0
2017-Jun-26 01:28N 59°41' E 028°25'0 0.0
2017-Jun-26 00:52N 59°41' E 028°25'0 0.0
2017-Jun-26 00:28N 59°41' E 028°25'0 0.0
2017-Jun-25 23:58N 59°41' E 028°25'0 0.0
2017-Jun-25 23:28N 59°41' E 028°25'0 0.0
2017-Jun-25 22:58N 59°41' E 028°25'0 0.0
2017-Jun-25 22:28N 59°41' E 028°25'0 0.0
2017-Jun-25 21:55N 59°41' E 028°25'0 0.0
2017-Jun-25 21:25N 59°41' E 028°25'0 0.0
2017-Jun-25 20:58N 59°41' E 028°25'0 0.0
2017-Jun-25 20:28N 59°41' E 028°25'0 0.0
2017-Jun-25 19:58N 59°41' E 028°25'0 0.0
2017-Jun-25 19:28N 59°41' E 028°25'0 0.0
2017-Jun-25 18:58N 59°41' E 028°25'0 0.0
2017-Jun-25 18:28N 59°41' E 028°25'0 0.0
2017-Jun-25 17:58N 59°41' E 028°25'0 0.0
2017-Jun-25 17:28N 59°41' E 028°25'0 0.0
2017-Jun-25 16:58N 59°41' E 028°25'0 0.0
2017-Jun-25 16:28N 59°41' E 028°25'0 0.0
2017-Jun-25 15:58N 59°41' E 028°25'0 0.0
2017-Jun-25 15:28N 59°41' E 028°25'0 0.0
2017-Jun-25 14:58N 59°41' E 028°25'0 0.0
2017-Jun-25 13:58N 59°41' E 028°25'0 0.0
2017-Jun-25 13:28N 59°41' E 028°25'0 0.0
2017-Jun-25 12:58N 59°41' E 028°25'0 0.0
2017-Jun-25 12:28N 59°41' E 028°25'0 0.0
2017-Jun-25 11:58N 59°41' E 028°25'0 0.0
2017-Jun-25 11:25N 59°41' E 028°25'0 0.0
2017-Jun-25 10:52N 59°41' E 028°25'0 0.0
2017-Jun-25 10:28N 59°41' E 028°25'0 0.0
2017-Jun-25 09:58N 59°41' E 028°25'0 0.0
2017-Jun-25 09:28N 59°41' E 028°25'0 0.0
2017-Jun-25 08:58N 59°41' E 028°25'0 0.0
2017-Jun-25 08:28N 59°41' E 028°25'0 0.0
2017-Jun-25 07:58N 59°41' E 028°25'0 0.0
2017-Jun-25 07:28N 59°41' E 028°25'0 0.0
2017-Jun-25 06:58N 59°41' E 028°25'0 0.0
2017-Jun-25 06:28N 59°41' E 028°25'0 0.0
2017-Jun-25 05:58N 59°41' E 028°25'0 0.0
2017-Jun-25 05:28N 59°41' E 028°25'0 0.0
2017-Jun-25 04:58N 59°41' E 028°25'0 0.0
2017-Jun-25 04:28N 59°41' E 028°25'0 0.0
2017-Jun-25 03:58N 59°41' E 028°25'0 0.0
2017-Jun-25 03:28N 59°41' E 028°25'0 0.0
2017-Jun-25 02:58N 59°41' E 028°25'0 0.0
2017-Jun-25 02:28N 59°41' E 028°25'0 0.0
2017-Jun-25 01:58N 59°41' E 028°25'0 0.0
2017-Jun-25 01:28N 59°41' E 028°25'0 0.0
2017-Jun-25 00:58N 59°41' E 028°25'0 0.0
2017-Jun-25 00:28N 59°41' E 028°25'0 0.0
2017-Jun-24 23:58N 59°41' E 028°25'0 0.1
2017-Jun-24 23:28N 59°41' E 028°25'0 0.0
2017-Jun-24 22:58N 59°41' E 028°25'0 0.0
2017-Jun-24 22:28N 59°41' E 028°25'0 0.0
2017-Jun-24 21:55N 59°41' E 028°25'0 0.0
2017-Jun-24 21:28N 59°41' E 028°25'0 0.0
2017-Jun-24 20:58N 59°41' E 028°25'0 0.0
2017-Jun-24 20:28N 59°41' E 028°25'0 0.0
2017-Jun-24 19:58N 59°41' E 028°25'0 0.0
2017-Jun-24 19:25N 59°41' E 028°25'0 0.0
2017-Jun-24 18:55N 59°41' E 028°25'0 0.0
2017-Jun-24 18:25N 59°41' E 028°25'0 0.0
2017-Jun-24 17:55N 59°41' E 028°25'0 0.0
2017-Jun-24 17:28N 59°41' E 028°25'0 0.0
2017-Jun-24 16:58N 59°41' E 028°25'0 0.0
2017-Jun-24 16:28N 59°41' E 028°25'0 0.0
2017-Jun-24 15:58N 59°41' E 028°25'0 0.0
2017-Jun-24 15:28N 59°41' E 028°25'0 0.0
2017-Jun-24 14:58N 59°41' E 028°25'0 0.0
2017-Jun-24 13:58N 59°41' E 028°25'0 0.0
2017-Jun-24 13:28N 59°41' E 028°25'0 0.0
2017-Jun-24 12:58N 59°41' E 028°25'0 0.0
2017-Jun-24 12:25N 59°41' E 028°25'0 0.0
2017-Jun-24 11:58N 59°41' E 028°25'0 0.0
2017-Jun-24 11:25N 59°41' E 028°25'0 0.0
2017-Jun-24 10:58N 59°41' E 028°25'0 0.0
2017-Jun-24 10:25N 59°41' E 028°25'0 0.0
2017-Jun-24 09:58N 59°41' E 028°25'0 0.0
2017-Jun-24 09:28N 59°41' E 028°25'0 0.0
2017-Jun-24 08:58N 59°41' E 028°25'0 0.0
2017-Jun-24 08:25N 59°41' E 028°25'0 0.0
2017-Jun-24 07:58N 59°41' E 028°25'0 0.0
2017-Jun-24 07:28N 59°41' E 028°25'0 0.0
2017-Jun-24 06:58N 59°41' E 028°25'0 0.0
2017-Jun-24 06:28N 59°41' E 028°25'0 0.0
2017-Jun-24 05:58N 59°41' E 028°25'0 0.0
2017-Jun-24 05:28N 59°41' E 028°25'0 0.0
2017-Jun-24 05:00N 59°41' E 028°25'0 0.9
2017-Jun-24 04:31N 59°41' E 028°24'3 6.0
2017-Jun-24 04:01N 59°44' E 028°24'5 9.7
2017-Jun-24 03:30N 59°49' E 028°25'510.2
2017-Jun-24 03:00N 59°54' E 028°30'4 7.7
2017-Jun-24 02:30N 59°56' E 028°37'0 0.1
2017-Jun-24 02:01N 59°56' E 028°37'0 0.0
2017-Jun-24 01:30N 59°56' E 028°37'0 0.0
2017-Jun-24 01:01N 59°56' E 028°37'0 0.0
2017-Jun-24 00:31N 59°56' E 028°37'0 0.0
2017-Jun-24 00:00N 59°56' E 028°37'0 0.0
2017-Jun-23 23:31N 59°56' E 028°37'0 0.0
2017-Jun-23 23:01N 59°56' E 028°37'0 0.0
2017-Jun-23 22:31N 59°56' E 028°37'0 0.0
2017-Jun-23 22:00N 59°56' E 028°37'0 0.0
2017-Jun-23 21:31N 59°56' E 028°37'0 0.0
2017-Jun-23 21:00N 59°56' E 028°37'0 0.0
2017-Jun-23 20:31N 59°56' E 028°37'0 0.0
2017-Jun-23 20:01N 59°56' E 028°37'0 0.0
2017-Jun-23 19:31N 59°56' E 028°37'0 0.0
2017-Jun-23 19:01N 59°56' E 028°37'0 0.0
2017-Jun-23 18:31N 59°56' E 028°37'0 0.0
2017-Jun-23 18:01N 59°56' E 028°37'0 0.0
2017-Jun-23 17:31N 59°56' E 028°37'0 0.0
2017-Jun-23 17:00N 59°56' E 028°37'0 0.0
2017-Jun-23 16:31N 59°56' E 028°37'0 0.1
2017-Jun-23 16:00N 59°56' E 028°37'0 0.0
2017-Jun-23 15:30N 59°56' E 028°37'0 0.0
2017-Jun-23 15:00N 59°56' E 028°37'0 0.0
2017-Jun-23 14:31N 59°56' E 028°37'0 0.0
2017-Jun-23 13:30N 59°56' E 028°37'0 0.0
2017-Jun-23 13:01N 59°56' E 028°37'0 0.0
2017-Jun-23 12:30N 59°56' E 028°37'0 0.0
2017-Jun-23 12:01N 59°56' E 028°37'0 0.1
2017-Jun-23 11:31N 59°56' E 028°37'0 0.0
2017-Jun-23 11:00N 59°56' E 028°37'0 0.1
2017-Jun-23 10:31N 59°56' E 028°37'0 0.0
2017-Jun-23 10:01N 59°56' E 028°37'0 0.0
2017-Jun-23 09:31N 59°56' E 028°37'0 0.0
2017-Jun-23 09:00N 59°56' E 028°37'0 0.0
2017-Jun-23 08:31N 59°56' E 028°37'0 0.0
2017-Jun-23 08:01N 59°56' E 028°37'0 0.0
2017-Jun-23 07:31N 59°56' E 028°37'0 0.0
2017-Jun-23 07:01N 59°56' E 028°37'0 0.1
2017-Jun-23 06:31N 59°56' E 028°36'0 0.0
2017-Jun-23 06:00N 59°56' E 028°36'0 0.1
2017-Jun-23 05:30N 59°56' E 028°36'0 0.0
2017-Jun-23 05:01N 59°56' E 028°36'0 0.2
2017-Jun-23 04:31N 59°56' E 028°37'0 0.1
2017-Jun-23 04:01N 59°56' E 028°37'0 0.0
2017-Jun-23 03:31N 59°56' E 028°37'0 0.0
2017-Jun-23 03:01N 59°56' E 028°37'0 0.0
2017-Jun-23 02:31N 59°56' E 028°37'0 0.1
2017-Jun-23 02:00N 59°56' E 028°37'0 0.0
2017-Jun-23 01:31N 59°56' E 028°37'0 0.0
2017-Jun-23 01:00N 59°56' E 028°37'0 0.0
2017-Jun-23 00:30N 59°56' E 028°37'0 0.0
2017-Jun-23 00:00N 59°56' E 028°37'0 0.0
2017-Jun-22 23:31N 59°56' E 028°37'0 0.0
2017-Jun-22 23:01N 59°56' E 028°37'0 0.0
2017-Jun-22 22:31N 59°56' E 028°37'0 0.1
2017-Jun-22 22:01N 59°56' E 028°37'0 0.0
2017-Jun-22 21:31N 59°56' E 028°37'0 0.0
2017-Jun-22 21:00N 59°56' E 028°37'0 0.0
2017-Jun-22 20:31N 59°56' E 028°37'0 0.0
2017-Jun-22 20:00N 59°56' E 028°37'0 0.0
2017-Jun-22 19:31N 59°56' E 028°37'0 0.0
2017-Jun-22 19:01N 59°56' E 028°37'0 0.0
2017-Jun-22 18:30N 59°56' E 028°37'0 0.0
2017-Jun-22 18:00N 59°56' E 028°37'0 0.0
2017-Jun-22 17:31N 59°56' E 028°37'0 0.0
2017-Jun-22 17:01N 59°56' E 028°37'0 0.0
2017-Jun-22 16:30N 59°56' E 028°37'0 0.0
2017-Jun-22 16:01N 59°56' E 028°37'0 0.1
2017-Jun-22 15:31N 59°56' E 028°37'0 0.1
2017-Jun-22 15:01N 59°56' E 028°37'0 0.1
2017-Jun-22 14:30N 59°56' E 028°37'0 0.0
2017-Jun-22 13:31N 59°56' E 028°37'0 0.0
2017-Jun-22 13:00N 59°56' E 028°37'0 0.0
2017-Jun-22 12:30N 59°56' E 028°37'0 0.0
2017-Jun-22 12:00N 59°56' E 028°37'0 0.0
2017-Jun-22 11:31N 59°56' E 028°37'0 0.0
2017-Jun-22 11:00N 59°56' E 028°37'0 0.1
2017-Jun-22 10:31N 59°56' E 028°37'0 0.1
2017-Jun-22 10:00N 59°56' E 028°37'0 0.0
2017-Jun-22 09:30N 59°56' E 028°37'0 0.0
2017-Jun-22 09:00N 59°56' E 028°37'0 0.0
2017-Jun-22 08:30N 59°56' E 028°37'0 0.0
2017-Jun-22 08:01N 59°56' E 028°37'0 0.0
2017-Jun-22 07:30N 59°56' E 028°37'0 0.0
2017-Jun-22 07:00N 59°56' E 028°37'0 0.0
2017-Jun-22 06:30N 59°56' E 028°37'0 0.0
2017-Jun-22 06:01N 59°56' E 028°37'0 0.0
2017-Jun-22 05:31N 59°56' E 028°37'0 0.0
2017-Jun-22 05:00N 59°56' E 028°37'0 0.0
2017-Jun-22 04:31N 59°56' E 028°37'0 0.0
2017-Jun-22 04:00N 59°56' E 028°37'0 0.0
2017-Jun-22 03:30N 59°56' E 028°37'0 0.0
2017-Jun-22 03:00N 59°56' E 028°37'0 0.0
2017-Jun-22 02:31N 59°56' E 028°37'0 0.0
2017-Jun-22 02:01N 59°56' E 028°37'0 0.0
2017-Jun-22 01:30N 59°56' E 028°37'0 0.0
2017-Jun-22 01:01N 59°56' E 028°37'0 0.0
2017-Jun-22 00:31N 59°56' E 028°37'0 0.0
2017-Jun-22 00:01N 59°56' E 028°37'0 0.0
2017-Jun-21 23:31N 59°56' E 028°37'0 0.0
2017-Jun-21 23:01N 59°56' E 028°37'0 0.0
2017-Jun-21 22:31N 59°56' E 028°37'0 0.0
2017-Jun-21 22:00N 59°56' E 028°37'0 0.0
2017-Jun-21 21:31N 59°56' E 028°37'0 0.0
2017-Jun-21 21:00N 59°56' E 028°37'0 0.0
2017-Jun-21 20:31N 59°56' E 028°37'0 0.0
2017-Jun-21 20:01N 59°56' E 028°37'0 0.0
2017-Jun-21 19:31N 59°56' E 028°37'0 0.0
2017-Jun-21 19:01N 59°56' E 028°37'0 0.0
2017-Jun-21 18:30N 59°56' E 028°37'0 0.1
2017-Jun-21 18:00N 59°56' E 028°37'0 0.1
2017-Jun-21 17:31N 59°56' E 028°37'0 0.0
2017-Jun-21 17:00N 59°56' E 028°37'0 0.0
2017-Jun-21 16:31N 59°56' E 028°37'0 0.0
2017-Jun-21 16:00N 59°56' E 028°37'0 0.0
2017-Jun-21 15:31N 59°56' E 028°37'0 0.0
2017-Jun-21 15:01N 59°56' E 028°37'0 0.1
2017-Jun-21 14:30N 59°56' E 028°37'0 0.1
2017-Jun-21 13:31N 59°56' E 028°37'0 0.0
2017-Jun-21 13:01N 59°56' E 028°37'0 0.0
2017-Jun-21 12:31N 59°56' E 028°37'0 0.0
2017-Jun-21 12:00N 59°56' E 028°37'0 0.0
2017-Jun-21 11:31N 59°56' E 028°37'0 0.0
2017-Jun-21 11:01N 59°56' E 028°37'0 0.1
2017-Jun-21 10:31N 59°56' E 028°37'0 0.0
2017-Jun-21 10:00N 59°56' E 028°37'0 0.1
2017-Jun-21 09:31N 59°56' E 028°37'0 0.0
2017-Jun-21 09:01N 59°56' E 028°37'0 0.0
2017-Jun-21 08:30N 59°56' E 028°37'0 0.0
2017-Jun-21 08:00N 59°56' E 028°37'0 0.0
2017-Jun-21 07:30N 59°56' E 028°37'0 0.0
2017-Jun-21 07:01N 59°56' E 028°37'0 0.0
2017-Jun-21 06:31N 59°56' E 028°37'0 0.0
2017-Jun-21 06:01N 59°56' E 028°37'0 0.0
2017-Jun-21 05:30N 59°56' E 028°37'0 0.0
2017-Jun-21 05:00N 59°56' E 028°37'0 0.0
2017-Jun-21 04:30N 59°56' E 028°37'0 0.1
2017-Jun-21 04:00N 59°56' E 028°37'0 0.0
2017-Jun-21 03:30N 59°56' E 028°37'0 0.0
2017-Jun-21 03:00N 59°56' E 028°37'0 0.0
2017-Jun-21 02:30N 59°56' E 028°37'0 0.0
2017-Jun-21 02:01N 59°56' E 028°37'0 0.0
2017-Jun-21 01:31N 59°56' E 028°37'0 0.0
2017-Jun-21 01:01N 59°56' E 028°37'0 0.0
2017-Jun-21 00:31N 59°56' E 028°37'0 0.0
2017-Jun-21 00:01N 59°56' E 028°37'0 0.0
2017-Jun-20 23:31N 59°56' E 028°37'0 0.0
2017-Jun-20 23:00N 59°56' E 028°37'0 0.0
2017-Jun-20 22:31N 59°56' E 028°37'0 0.1
2017-Jun-20 22:01N 59°56' E 028°37'0 0.0
2017-Jun-20 21:31N 59°56' E 028°37'0 0.0
2017-Jun-20 21:01N 59°56' E 028°37'0 0.0
2017-Jun-20 20:31N 59°56' E 028°37'0 0.0
2017-Jun-20 20:01N 59°56' E 028°37'0 0.0
2017-Jun-20 19:31N 59°56' E 028°37'0 0.0
2017-Jun-20 19:00N 59°56' E 028°37'0 0.1
2017-Jun-20 18:31N 59°56' E 028°37'0 0.1
2017-Jun-20 18:01N 59°56' E 028°37'0 0.1
2017-Jun-20 17:31N 59°56' E 028°37'0 0.1
2017-Jun-20 17:01N 59°56' E 028°37'0 0.0
2017-Jun-20 16:31N 59°56' E 028°37'0 0.0
2017-Jun-20 16:01N 59°56' E 028°37'0 0.0
2017-Jun-20 15:30N 59°56' E 028°37'0 0.0
2017-Jun-20 15:01N 59°56' E 028°37'0 0.0
2017-Jun-20 14:00N 59°56' E 028°37'0 0.0
2017-Jun-20 13:30N 59°56' E 028°37'0 0.2
2017-Jun-20 13:00N 59°56' E 028°37'0 0.2
2017-Jun-20 12:30N 59°56' E 028°36'0 0.1
2017-Jun-20 12:01N 59°56' E 028°36'0 0.0
2017-Jun-20 11:31N 59°56' E 028°36'0 0.0
2017-Jun-20 11:01N 59°56' E 028°36'0 0.0
2017-Jun-20 10:31N 59°56' E 028°36'0 0.0
2017-Jun-20 10:00N 59°56' E 028°36'0 0.0
2017-Jun-20 09:31N 59°56' E 028°36'0 0.0
2017-Jun-20 09:00N 59°56' E 028°36'0 0.1
2017-Jun-20 08:31N 59°56' E 028°37'0 0.1
2017-Jun-20 08:01N 59°56' E 028°37'0 0.1
2017-Jun-20 07:31N 59°56' E 028°37'0 0.0
2017-Jun-20 07:00N 59°56' E 028°37'0 0.1
2017-Jun-20 06:31N 59°56' E 028°37'0 0.0
2017-Jun-20 06:01N 59°56' E 028°37'0 0.1
2017-Jun-20 05:30N 59°56' E 028°37'0 0.0
2017-Jun-20 05:01N 59°56' E 028°37'0 0.0
2017-Jun-20 04:31N 59°56' E 028°37'0 0.1
2017-Jun-20 04:01N 59°56' E 028°37'0 0.0
2017-Jun-20 03:31N 59°56' E 028°37'0 0.1
2017-Jun-20 03:00N 59°56' E 028°37'0 0.0
2017-Jun-20 02:31N 59°56' E 028°37'0 0.0
2017-Jun-20 02:00N 59°56' E 028°37'0 0.0
2017-Jun-20 01:30N 59°56' E 028°37'0 0.0
2017-Jun-20 01:01N 59°56' E 028°37'0 0.0
2017-Jun-20 00:31N 59°56' E 028°37'0 0.0
2017-Jun-20 00:00N 59°56' E 028°37'0 0.0
2017-Jun-19 23:30N 59°56' E 028°37'0 0.0
2017-Jun-19 23:01N 59°56' E 028°37'0 0.0
2017-Jun-19 22:30N 59°56' E 028°37'0 0.0
2017-Jun-19 22:01N 59°56' E 028°37'0 0.0
2017-Jun-19 21:30N 59°56' E 028°37'0 0.0
2017-Jun-19 21:01N 59°56' E 028°37'0 0.0
2017-Jun-19 20:31N 59°56' E 028°37'0 0.0
2017-Jun-19 20:00N 59°56' E 028°37'0 0.0
2017-Jun-19 19:30N 59°56' E 028°37'0 0.0
2017-Jun-19 19:00N 59°56' E 028°37'0 0.0
2017-Jun-19 18:31N 59°56' E 028°37'0 0.0
2017-Jun-19 18:00N 59°56' E 028°37'0 0.0
2017-Jun-19 17:31N 59°56' E 028°37'0 0.0
2017-Jun-19 17:01N 59°56' E 028°37'0 0.0
2017-Jun-19 16:30N 59°56' E 028°37'0 0.1
2017-Jun-19 16:01N 59°56' E 028°37'0 0.0
2017-Jun-19 15:31N 59°56' E 028°37'0 0.0
2017-Jun-19 15:00N 59°56' E 028°37'0 0.0
2017-Jun-19 14:00N 59°56' E 028°37'0 0.0
2017-Jun-19 13:31N 59°56' E 028°37'0 0.0
2017-Jun-19 13:01N 59°56' E 028°37'0 0.0
2017-Jun-19 12:30N 59°56' E 028°37'0 0.0
2017-Jun-19 12:00N 59°56' E 028°37'0 0.0
2017-Jun-19 11:30N 59°56' E 028°37'0 0.0
2017-Jun-19 11:00N 59°56' E 028°37'0 0.0
2017-Jun-19 10:30N 59°56' E 028°37'0 0.0
2017-Jun-19 10:00N 59°56' E 028°37'0 0.0
2017-Jun-19 09:31N 59°56' E 028°37'0 0.0
2017-Jun-19 09:01N 59°56' E 028°37'0 0.0
2017-Jun-19 08:31N 59°56' E 028°37'0 0.0
2017-Jun-19 08:00N 59°56' E 028°37'0 0.0
2017-Jun-19 07:30N 59°56' E 028°37'0 0.0
2017-Jun-19 07:00N 59°56' E 028°37'0 0.0
2017-Jun-19 06:31N 59°56' E 028°37'0 0.0
2017-Jun-19 06:00N 59°56' E 028°37'0 0.0
2017-Jun-19 05:31N 59°56' E 028°37'0 0.0
2017-Jun-19 05:00N 59°56' E 028°37'0 0.0
2017-Jun-19 04:31N 59°56' E 028°37'0 0.0
2017-Jun-19 04:01N 59°56' E 028°37'0 0.0
2017-Jun-19 03:30N 59°56' E 028°37'0 0.0
2017-Jun-19 03:00N 59°56' E 028°37'0 0.0
2017-Jun-19 02:31N 59°56' E 028°37'0 0.0
2017-Jun-19 02:00N 59°56' E 028°37'0 0.0
2017-Jun-19 01:31N 59°56' E 028°37'0 0.0
2017-Jun-19 01:01N 59°56' E 028°37'0 0.0
2017-Jun-19 00:31N 59°56' E 028°37'0 0.0
2017-Jun-19 00:00N 59°56' E 028°37'0 0.0
2017-Jun-18 23:30N 59°56' E 028°37'0 0.0
2017-Jun-18 23:00N 59°56' E 028°37'0 0.0
2017-Jun-18 22:31N 59°56' E 028°37'0 0.0
2017-Jun-18 22:00N 59°56' E 028°37'0 0.0
2017-Jun-18 21:30N 59°56' E 028°37'0 0.0
2017-Jun-18 21:00N 59°56' E 028°37'0 0.0
2017-Jun-18 20:31N 59°56' E 028°37'0 0.0
2017-Jun-18 20:00N 59°56' E 028°37'0 0.0
2017-Jun-18 19:31N 59°56' E 028°37'0 0.0
2017-Jun-18 19:00N 59°56' E 028°37'0 0.1
2017-Jun-18 18:31N 59°56' E 028°37'0 0.0
2017-Jun-18 18:00N 59°56' E 028°37'0 0.0
2017-Jun-18 17:30N 59°56' E 028°37'0 0.0
2017-Jun-18 17:00N 59°56' E 028°37'0 0.1
2017-Jun-18 16:31N 59°56' E 028°37'0 0.1
2017-Jun-18 16:00N 59°56' E 028°37'0 0.1
2017-Jun-18 15:31N 59°56' E 028°37'0 0.0
2017-Jun-18 15:00N 59°56' E 028°37'0 0.1
2017-Jun-18 14:01N 59°56' E 028°37'0 0.0
2017-Jun-18 13:30N 59°56' E 028°37'0 0.0
2017-Jun-18 13:01N 59°56' E 028°37'0 0.0
2017-Jun-18 12:31N 59°56' E 028°37'0 0.0
2017-Jun-18 12:01N 59°56' E 028°37'0 0.0
2017-Jun-18 11:31N 59°56' E 028°37'0 0.0
2017-Jun-18 11:00N 59°56' E 028°37'0 0.0
2017-Jun-18 10:31N 59°56' E 028°37'0 0.0
2017-Jun-18 10:00N 59°56' E 028°37'0 0.0
2017-Jun-18 09:30N 59°56' E 028°37'0 0.0
2017-Jun-18 09:00N 59°56' E 028°37'0 0.1
2017-Jun-18 08:31N 59°56' E 028°37'0 0.0
2017-Jun-18 08:00N 59°56' E 028°37'0 0.0
2017-Jun-18 07:31N 59°56' E 028°37'0 0.0
2017-Jun-18 07:01N 59°56' E 028°37'0 0.0
2017-Jun-18 06:30N 59°56' E 028°37'0 0.1
2017-Jun-18 06:00N 59°56' E 028°37'0 0.0
2017-Jun-18 05:30N 59°56' E 028°37'0 0.0
2017-Jun-18 05:01N 59°56' E 028°37'0 0.0
2017-Jun-18 04:31N 59°56' E 028°37'0 0.0
2017-Jun-18 04:01N 59°56' E 028°37'0 0.0
2017-Jun-18 03:31N 59°56' E 028°37'0 0.0
2017-Jun-18 03:00N 59°56' E 028°37'0 0.0
2017-Jun-18 02:31N 59°56' E 028°37'0 0.0
2017-Jun-18 02:00N 59°56' E 028°37'0 0.0
2017-Jun-18 01:31N 59°56' E 028°37'0 0.0
2017-Jun-18 01:01N 59°56' E 028°37'0 0.1
2017-Jun-18 00:31N 59°56' E 028°37'0 0.3
2017-Jun-18 00:01N 59°56' E 028°36'0 0.2
2017-Jun-17 23:31N 59°56' E 028°36'1 2.7
2017-Jun-17 23:01N 59°57' E 028°35'2 4.2
2017-Jun-17 22:31N 59°59' E 028°35'  

Dump ship's entire track history